sensor_id;sensor_type;location;lat;lon;timestamp;P1;durP1;ratioP1;P2;durP2;ratioP2
7575;SDS011;3829;50.798;4.358;2023-02-28T00:01:05;9.30;;;4.70;;
7575;SDS011;3829;50.798;4.358;2023-02-28T00:03:30;16.57;;;5.03;;
7575;SDS011;3829;50.798;4.358;2023-02-28T00:06:00;9.53;;;4.37;;
7575;SDS011;3829;50.798;4.358;2023-02-28T00:08:27;5.83;;;3.70;;
7575;SDS011;3829;50.798;4.358;2023-02-28T00:10:53;10.57;;;5.10;;
7575;SDS011;3829;50.798;4.358;2023-02-28T00:13:18;6.03;;;4.17;;
7575;SDS011;3829;50.798;4.358;2023-02-28T00:15:44;8.57;;;4.30;;
7575;SDS011;3829;50.798;4.358;2023-02-28T00:18:10;6.77;;;4.20;;
7575;SDS011;3829;50.798;4.358;2023-02-28T00:20:36;8.20;;;4.23;;
7575;SDS011;3829;50.798;4.358;2023-02-28T00:23:02;5.83;;;4.13;;
7575;SDS011;3829;50.798;4.358;2023-02-28T00:25:28;8.30;;;4.30;;
7575;SDS011;3829;50.798;4.358;2023-02-28T00:27:53;7.30;;;4.80;;
7575;SDS011;3829;50.798;4.358;2023-02-28T00:30:20;11.27;;;4.67;;
7575;SDS011;3829;50.798;4.358;2023-02-28T00:32:47;9.33;;;4.23;;
7575;SDS011;3829;50.798;4.358;2023-02-28T00:35:13;6.70;;;4.23;;
7575;SDS011;3829;50.798;4.358;2023-02-28T00:37:39;6.50;;;4.37;;
7575;SDS011;3829;50.798;4.358;2023-02-28T00:40:05;9.80;;;4.17;;
7575;SDS011;3829;50.798;4.358;2023-02-28T00:42:31;8.90;;;4.30;;
7575;SDS011;3829;50.798;4.358;2023-02-28T00:44:58;8.10;;;4.70;;
7575;SDS011;3829;50.798;4.358;2023-02-28T00:47:23;9.17;;;4.23;;
7575;SDS011;3829;50.798;4.358;2023-02-28T00:49:49;7.80;;;4.37;;
7575;SDS011;3829;50.798;4.358;2023-02-28T00:52:14;6.90;;;4.30;;
7575;SDS011;3829;50.798;4.358;2023-02-28T00:54:40;8.10;;;3.73;;
7575;SDS011;3829;50.798;4.358;2023-02-28T00:57:06;9.13;;;4.10;;
7575;SDS011;3829;50.798;4.358;2023-02-28T00:59:31;12.97;;;4.43;;
7575;SDS011;3829;50.798;4.358;2023-02-28T01:01:57;6.93;;;4.37;;
7575;SDS011;3829;50.798;4.358;2023-02-28T01:04:22;7.57;;;4.40;;
7575;SDS011;3829;50.798;4.358;2023-02-28T01:06:48;6.50;;;4.10;;
7575;SDS011;3829;50.798;4.358;2023-02-28T01:09:14;10.07;;;4.70;;
7575;SDS011;3829;50.798;4.358;2023-02-28T01:11:39;6.50;;;4.17;;
7575;SDS011;3829;50.798;4.358;2023-02-28T01:14:09;8.90;;;4.40;;
7575;SDS011;3829;50.798;4.358;2023-02-28T01:16:38;10.57;;;4.13;;
7575;SDS011;3829;50.798;4.358;2023-02-28T01:19:03;9.30;;;4.30;;
7575;SDS011;3829;50.798;4.358;2023-02-28T01:21:29;8.70;;;4.50;;
7575;SDS011;3829;50.798;4.358;2023-02-28T01:23:56;7.07;;;4.63;;
7575;SDS011;3829;50.798;4.358;2023-02-28T01:26:22;8.47;;;3.97;;
7575;SDS011;3829;50.798;4.358;2023-02-28T01:28:49;10.20;;;4.90;;
7575;SDS011;3829;50.798;4.358;2023-02-28T01:31:17;7.93;;;4.33;;
7575;SDS011;3829;50.798;4.358;2023-02-28T01:33:43;7.93;;;4.23;;
7575;SDS011;3829;50.798;4.358;2023-02-28T01:36:17;7.20;;;4.60;;
7575;SDS011;3829;50.798;4.358;2023-02-28T01:38:45;8.47;;;5.30;;
7575;SDS011;3829;50.798;4.358;2023-02-28T01:41:18;9.43;;;4.93;;
7575;SDS011;3829;50.798;4.358;2023-02-28T01:46:12;9.07;;;4.93;;
7575;SDS011;3829;50.798;4.358;2023-02-28T01:48:41;6.17;;;4.37;;
7575;SDS011;3829;50.798;4.358;2023-02-28T01:51:13;9.47;;;5.30;;
7575;SDS011;3829;50.798;4.358;2023-02-28T01:53:44;12.73;;;5.00;;
7575;SDS011;3829;50.798;4.358;2023-02-28T01:56:13;13.20;;;4.93;;
7575;SDS011;3829;50.798;4.358;2023-02-28T01:58:46;8.53;;;4.77;;
7575;SDS011;3829;50.798;4.358;2023-02-28T02:01:12;7.33;;;5.17;;
7575;SDS011;3829;50.798;4.358;2023-02-28T02:03:46;10.27;;;4.80;;
7575;SDS011;3829;50.798;4.358;2023-02-28T02:06:20;8.50;;;4.67;;
7575;SDS011;3829;50.798;4.358;2023-02-28T02:08:47;7.90;;;4.43;;
7575;SDS011;3829;50.798;4.358;2023-02-28T02:11:12;12.47;;;4.37;;
7575;SDS011;3829;50.798;4.358;2023-02-28T02:13:46;10.17;;;4.87;;
7575;SDS011;3829;50.798;4.358;2023-02-28T02:16:48;8.87;;;5.40;;
7575;SDS011;3829;50.798;4.358;2023-02-28T02:27:39;12.27;;;5.20;;
7575;SDS011;3829;50.798;4.358;2023-02-28T02:30:25;8.40;;;4.93;;
7575;SDS011;3829;50.798;4.358;2023-02-28T02:36:06;9.93;;;4.70;;
7575;SDS011;3829;50.798;4.358;2023-02-28T02:38:53;7.03;;;5.23;;
7575;SDS011;3829;50.798;4.358;2023-02-28T02:41:51;8.20;;;5.83;;
7575;SDS011;3829;50.798;4.358;2023-02-28T02:46:50;9.67;;;6.07;;
7575;SDS011;3829;50.798;4.358;2023-02-28T02:49:20;8.23;;;6.10;;
7575;SDS011;3829;50.798;4.358;2023-02-28T02:51:49;12.83;;;5.53;;
7575;SDS011;3829;50.798;4.358;2023-02-28T02:54:28;8.17;;;5.17;;
7575;SDS011;3829;50.798;4.358;2023-02-28T02:56:57;11.20;;;5.40;;
7575;SDS011;3829;50.798;4.358;2023-02-28T02:59:27;11.80;;;5.97;;
7575;SDS011;3829;50.798;4.358;2023-02-28T03:01:57;12.23;;;5.97;;
7575;SDS011;3829;50.798;4.358;2023-02-28T03:04:27;8.70;;;5.47;;
7575;SDS011;3829;50.798;4.358;2023-02-28T03:06:58;12.67;;;6.23;;
7575;SDS011;3829;50.798;4.358;2023-02-28T03:09:24;8.80;;;5.73;;
7575;SDS011;3829;50.798;4.358;2023-02-28T03:11:53;11.77;;;6.40;;
7575;SDS011;3829;50.798;4.358;2023-02-28T03:19:47;11.60;;;5.77;;
7575;SDS011;3829;50.798;4.358;2023-02-28T03:27:34;11.43;;;6.60;;
7575;SDS011;3829;50.798;4.358;2023-02-28T03:30:14;11.20;;;6.00;;
7575;SDS011;3829;50.798;4.358;2023-02-28T03:35:24;12.50;;;6.77;;
7575;SDS011;3829;50.798;4.358;2023-02-28T03:37:58;13.00;;;6.17;;
7575;SDS011;3829;50.798;4.358;2023-02-28T03:40:30;10.37;;;6.63;;
7575;SDS011;3829;50.798;4.358;2023-02-28T03:43:01;12.47;;;6.87;;
7575;SDS011;3829;50.798;4.358;2023-02-28T03:45:35;10.77;;;5.77;;
7575;SDS011;3829;50.798;4.358;2023-02-28T03:48:13;12.33;;;6.63;;
7575;SDS011;3829;50.798;4.358;2023-02-28T03:50:45;11.97;;;6.63;;
7575;SDS011;3829;50.798;4.358;2023-02-28T03:53:25;15.20;;;6.73;;
7575;SDS011;3829;50.798;4.358;2023-02-28T04:01:36;12.33;;;7.33;;
7575;SDS011;3829;50.798;4.358;2023-02-28T04:04:06;15.00;;;7.13;;
7575;SDS011;3829;50.798;4.358;2023-02-28T04:06:32;10.23;;;6.67;;
7575;SDS011;3829;50.798;4.358;2023-02-28T04:08:59;14.53;;;7.37;;
7575;SDS011;3829;50.798;4.358;2023-02-28T04:14:04;12.40;;;7.07;;
7575;SDS011;3829;50.798;4.358;2023-02-28T04:16:31;15.03;;;8.17;;
7575;SDS011;3829;50.798;4.358;2023-02-28T04:18:58;12.70;;;7.07;;
7575;SDS011;3829;50.798;4.358;2023-02-28T04:21:35;15.50;;;7.87;;
7575;SDS011;3829;50.798;4.358;2023-02-28T04:24:05;11.10;;;7.03;;
7575;SDS011;3829;50.798;4.358;2023-02-28T04:26:33;13.83;;;7.47;;
7575;SDS011;3829;50.798;4.358;2023-02-28T04:29:01;17.27;;;6.80;;
7575;SDS011;3829;50.798;4.358;2023-02-28T04:31:31;14.27;;;7.67;;
7575;SDS011;3829;50.798;4.358;2023-02-28T04:33:56;12.77;;;7.70;;
7575;SDS011;3829;50.798;4.358;2023-02-28T04:36:22;19.10;;;7.23;;
7575;SDS011;3829;50.798;4.358;2023-02-28T04:38:48;10.57;;;6.93;;
7575;SDS011;3829;50.798;4.358;2023-02-28T04:41:14;13.10;;;7.10;;
7575;SDS011;3829;50.798;4.358;2023-02-28T04:43:40;13.07;;;7.53;;
7575;SDS011;3829;50.798;4.358;2023-02-28T04:46:06;12.53;;;7.60;;
7575;SDS011;3829;50.798;4.358;2023-02-28T04:48:32;12.73;;;7.93;;
7575;SDS011;3829;50.798;4.358;2023-02-28T04:51:10;14.80;;;8.23;;
7575;SDS011;3829;50.798;4.358;2023-02-28T04:53:37;12.70;;;6.47;;
7575;SDS011;3829;50.798;4.358;2023-02-28T04:56:04;15.10;;;8.00;;
7575;SDS011;3829;50.798;4.358;2023-02-28T04:58:31;12.43;;;8.00;;
7575;SDS011;3829;50.798;4.358;2023-02-28T05:01:13;16.60;;;8.13;;
7575;SDS011;3829;50.798;4.358;2023-02-28T05:03:48;17.60;;;7.20;;
7575;SDS011;3829;50.798;4.358;2023-02-28T05:06:15;12.60;;;7.50;;
7575;SDS011;3829;50.798;4.358;2023-02-28T05:08:41;10.57;;;7.97;;
7575;SDS011;3829;50.798;4.358;2023-02-28T05:11:15;11.63;;;7.53;;
7575;SDS011;3829;50.798;4.358;2023-02-28T05:13:46;14.73;;;7.93;;
7575;SDS011;3829;50.798;4.358;2023-02-28T05:16:13;13.93;;;7.83;;
7575;SDS011;3829;50.798;4.358;2023-02-28T05:18:39;9.43;;;7.00;;
7575;SDS011;3829;50.798;4.358;2023-02-28T05:21:05;11.47;;;7.67;;
7575;SDS011;3829;50.798;4.358;2023-02-28T05:23:31;17.03;;;8.50;;
7575;SDS011;3829;50.798;4.358;2023-02-28T05:25:57;10.73;;;7.33;;
7575;SDS011;3829;50.798;4.358;2023-02-28T05:28:23;14.10;;;8.47;;
7575;SDS011;3829;50.798;4.358;2023-02-28T05:30:48;10.63;;;7.13;;
7575;SDS011;3829;50.798;4.358;2023-02-28T05:33:14;20.20;;;8.73;;
7575;SDS011;3829;50.798;4.358;2023-02-28T05:35:40;13.03;;;8.13;;
7575;SDS011;3829;50.798;4.358;2023-02-28T05:38:06;13.10;;;7.30;;
7575;SDS011;3829;50.798;4.358;2023-02-28T05:40:31;13.47;;;7.40;;
7575;SDS011;3829;50.798;4.358;2023-02-28T05:42:57;19.23;;;8.43;;
7575;SDS011;3829;50.798;4.358;2023-02-28T05:45:23;13.23;;;8.30;;
7575;SDS011;3829;50.798;4.358;2023-02-28T05:47:48;14.33;;;8.13;;
7575;SDS011;3829;50.798;4.358;2023-02-28T05:50:14;11.57;;;7.63;;
7575;SDS011;3829;50.798;4.358;2023-02-28T05:52:40;11.73;;;7.70;;
7575;SDS011;3829;50.798;4.358;2023-02-28T05:55:05;13.70;;;7.57;;
7575;SDS011;3829;50.798;4.358;2023-02-28T05:57:31;15.03;;;7.77;;
7575;SDS011;3829;50.798;4.358;2023-02-28T05:59:57;13.00;;;8.53;;
7575;SDS011;3829;50.798;4.358;2023-02-28T06:02:23;14.23;;;7.87;;
7575;SDS011;3829;50.798;4.358;2023-02-28T06:04:48;16.03;;;7.30;;
7575;SDS011;3829;50.798;4.358;2023-02-28T06:07:14;11.97;;;8.03;;
7575;SDS011;3829;50.798;4.358;2023-02-28T06:09:41;12.97;;;7.43;;
7575;SDS011;3829;50.798;4.358;2023-02-28T06:12:07;11.97;;;7.67;;
7575;SDS011;3829;50.798;4.358;2023-02-28T06:14:35;15.90;;;7.50;;
7575;SDS011;3829;50.798;4.358;2023-02-28T06:17:01;13.13;;;7.53;;
7575;SDS011;3829;50.798;4.358;2023-02-28T06:19:28;12.87;;;6.90;;
7575;SDS011;3829;50.798;4.358;2023-02-28T06:21:55;13.20;;;7.27;;
7575;SDS011;3829;50.798;4.358;2023-02-28T06:24:22;15.73;;;6.63;;
7575;SDS011;3829;50.798;4.358;2023-02-28T06:26:49;10.87;;;6.70;;
7575;SDS011;3829;50.798;4.358;2023-02-28T06:29:15;13.43;;;7.90;;
7575;SDS011;3829;50.798;4.358;2023-02-28T06:31:42;16.43;;;7.63;;
7575;SDS011;3829;50.798;4.358;2023-02-28T06:34:09;14.53;;;7.37;;
7575;SDS011;3829;50.798;4.358;2023-02-28T06:36:36;9.97;;;6.73;;
7575;SDS011;3829;50.798;4.358;2023-02-28T06:39:06;9.47;;;6.77;;
7575;SDS011;3829;50.798;4.358;2023-02-28T06:41:33;11.50;;;7.53;;
7575;SDS011;3829;50.798;4.358;2023-02-28T06:44:03;10.13;;;6.93;;
7575;SDS011;3829;50.798;4.358;2023-02-28T06:46:40;10.80;;;6.93;;
7575;SDS011;3829;50.798;4.358;2023-02-28T06:49:06;13.60;;;7.27;;
7575;SDS011;3829;50.798;4.358;2023-02-28T06:51:36;15.10;;;7.20;;
7575;SDS011;3829;50.798;4.358;2023-02-28T06:54:04;11.97;;;6.43;;
7575;SDS011;3829;50.798;4.358;2023-02-28T06:56:34;11.97;;;6.83;;
7575;SDS011;3829;50.798;4.358;2023-02-28T06:59:00;12.87;;;7.13;;
7575;SDS011;3829;50.798;4.358;2023-02-28T07:01:25;12.50;;;6.70;;
7575;SDS011;3829;50.798;4.358;2023-02-28T07:03:52;16.30;;;6.50;;
7575;SDS011;3829;50.798;4.358;2023-02-28T07:06:21;11.73;;;7.30;;
7575;SDS011;3829;50.798;4.358;2023-02-28T07:08:48;10.63;;;6.63;;
7575;SDS011;3829;50.798;4.358;2023-02-28T07:11:15;14.67;;;7.27;;
7575;SDS011;3829;50.798;4.358;2023-02-28T07:13:40;11.83;;;6.30;;
7575;SDS011;3829;50.798;4.358;2023-02-28T07:16:07;9.87;;;6.93;;
7575;SDS011;3829;50.798;4.358;2023-02-28T07:18:35;11.23;;;6.97;;
7575;SDS011;3829;50.798;4.358;2023-02-28T07:21:03;14.30;;;7.10;;
7575;SDS011;3829;50.798;4.358;2023-02-28T07:23:30;11.40;;;6.57;;
7575;SDS011;3829;50.798;4.358;2023-02-28T07:25:56;11.97;;;6.10;;
7575;SDS011;3829;50.798;4.358;2023-02-28T07:28:22;12.20;;;6.73;;
7575;SDS011;3829;50.798;4.358;2023-02-28T07:30:48;13.27;;;7.30;;
7575;SDS011;3829;50.798;4.358;2023-02-28T07:33:14;10.20;;;6.17;;
7575;SDS011;3829;50.798;4.358;2023-02-28T07:35:39;8.37;;;5.70;;
7575;SDS011;3829;50.798;4.358;2023-02-28T07:38:05;10.00;;;6.53;;
7575;SDS011;3829;50.798;4.358;2023-02-28T07:40:32;11.93;;;6.40;;
7575;SDS011;3829;50.798;4.358;2023-02-28T07:43:02;16.93;;;6.87;;
7575;SDS011;3829;50.798;4.358;2023-02-28T07:45:28;11.43;;;6.40;;
7575;SDS011;3829;50.798;4.358;2023-02-28T07:47:55;13.67;;;6.17;;
7575;SDS011;3829;50.798;4.358;2023-02-28T07:50:21;13.17;;;6.23;;
7575;SDS011;3829;50.798;4.358;2023-02-28T07:52:47;9.33;;;5.50;;
7575;SDS011;3829;50.798;4.358;2023-02-28T07:55:12;11.07;;;5.50;;
7575;SDS011;3829;50.798;4.358;2023-02-28T07:57:39;9.90;;;4.90;;
7575;SDS011;3829;50.798;4.358;2023-02-28T08:00:06;11.00;;;6.00;;
7575;SDS011;3829;50.798;4.358;2023-02-28T08:02:34;7.73;;;4.40;;
7575;SDS011;3829;50.798;4.358;2023-02-28T08:05:00;7.60;;;4.53;;
7575;SDS011;3829;50.798;4.358;2023-02-28T08:07:26;7.40;;;4.33;;
7575;SDS011;3829;50.798;4.358;2023-02-28T08:09:52;12.37;;;5.10;;
7575;SDS011;3829;50.798;4.358;2023-02-28T08:12:18;11.20;;;4.97;;
7575;SDS011;3829;50.798;4.358;2023-02-28T08:14:43;6.27;;;3.47;;
7575;SDS011;3829;50.798;4.358;2023-02-28T08:17:10;6.90;;;4.63;;
7575;SDS011;3829;50.798;4.358;2023-02-28T08:19:36;8.33;;;4.60;;
7575;SDS011;3829;50.798;4.358;2023-02-28T08:22:01;9.23;;;4.67;;
7575;SDS011;3829;50.798;4.358;2023-02-28T08:24:27;7.67;;;4.10;;
7575;SDS011;3829;50.798;4.358;2023-02-28T08:26:52;6.27;;;4.47;;
7575;SDS011;3829;50.798;4.358;2023-02-28T08:29:18;4.83;;;3.90;;
7575;SDS011;3829;50.798;4.358;2023-02-28T08:31:44;5.90;;;4.03;;
7575;SDS011;3829;50.798;4.358;2023-02-28T08:34:10;5.03;;;4.30;;
7575;SDS011;3829;50.798;4.358;2023-02-28T08:36:37;7.87;;;4.03;;
7575;SDS011;3829;50.798;4.358;2023-02-28T08:39:03;5.37;;;3.53;;
7575;SDS011;3829;50.798;4.358;2023-02-28T08:41:29;7.67;;;4.23;;
7575;SDS011;3829;50.798;4.358;2023-02-28T08:43:55;5.33;;;3.97;;
7575;SDS011;3829;50.798;4.358;2023-02-28T08:46:21;5.30;;;2.47;;
7575;SDS011;3829;50.798;4.358;2023-02-28T08:48:51;9.23;;;4.37;;
7575;SDS011;3829;50.798;4.358;2023-02-28T08:51:18;10.17;;;4.67;;
7575;SDS011;3829;50.798;4.358;2023-02-28T08:53:51;8.77;;;4.93;;
7575;SDS011;3829;50.798;4.358;2023-02-28T08:56:20;7.27;;;4.43;;
7575;SDS011;3829;50.798;4.358;2023-02-28T08:58:47;5.40;;;4.03;;
7575;SDS011;3829;50.798;4.358;2023-02-28T09:01:18;5.30;;;3.90;;
7575;SDS011;3829;50.798;4.358;2023-02-28T09:03:45;6.97;;;4.40;;
7575;SDS011;3829;50.798;4.358;2023-02-28T09:06:12;7.87;;;4.20;;
7575;SDS011;3829;50.798;4.358;2023-02-28T09:08:40;9.97;;;4.63;;
7575;SDS011;3829;50.798;4.358;2023-02-28T09:11:06;5.83;;;3.50;;
7575;SDS011;3829;50.798;4.358;2023-02-28T09:13:32;7.27;;;3.93;;
7575;SDS011;3829;50.798;4.358;2023-02-28T09:15:59;6.67;;;4.30;;
7575;SDS011;3829;50.798;4.358;2023-02-28T09:18:26;8.47;;;3.73;;
7575;SDS011;3829;50.798;4.358;2023-02-28T09:20:52;3.03;;;2.67;;
7575;SDS011;3829;50.798;4.358;2023-02-28T09:23:18;4.33;;;3.70;;
7575;SDS011;3829;50.798;4.358;2023-02-28T09:25:45;4.93;;;3.30;;
7575;SDS011;3829;50.798;4.358;2023-02-28T09:28:12;4.87;;;3.20;;
7575;SDS011;3829;50.798;4.358;2023-02-28T09:30:40;3.87;;;2.93;;
7575;SDS011;3829;50.798;4.358;2023-02-28T09:33:06;2.37;;;2.17;;
7575;SDS011;3829;50.798;4.358;2023-02-28T09:35:32;4.57;;;2.93;;
7575;SDS011;3829;50.798;4.358;2023-02-28T09:37:58;6.53;;;3.43;;
7575;SDS011;3829;50.798;4.358;2023-02-28T09:40:24;4.77;;;2.90;;
7575;SDS011;3829;50.798;4.358;2023-02-28T09:42:51;3.60;;;2.47;;
7575;SDS011;3829;50.798;4.358;2023-02-28T09:45:27;4.30;;;2.97;;
7575;SDS011;3829;50.798;4.358;2023-02-28T09:48:20;3.73;;;2.57;;
7575;SDS011;3829;50.798;4.358;2023-02-28T09:50:55;6.27;;;2.83;;
7575;SDS011;3829;50.798;4.358;2023-02-28T09:55:59;5.33;;;2.93;;
7575;SDS011;3829;50.798;4.358;2023-02-28T09:58:35;3.43;;;2.50;;
7575;SDS011;3829;50.798;4.358;2023-02-28T10:07:04;3.93;;;2.73;;
7575;SDS011;3829;50.798;4.358;2023-02-28T10:09:57;3.30;;;2.17;;
7575;SDS011;3829;50.798;4.358;2023-02-28T10:12:27;3.17;;;2.33;;
7575;SDS011;3829;50.798;4.358;2023-02-28T10:14:54;5.17;;;2.87;;
7575;SDS011;3829;50.798;4.358;2023-02-28T10:17:26;6.00;;;2.60;;
7575;SDS011;3829;50.798;4.358;2023-02-28T10:22:31;2.77;;;1.93;;
7575;SDS011;3829;50.798;4.358;2023-02-28T10:25:05;2.37;;;2.07;;
7575;SDS011;3829;50.798;4.358;2023-02-28T10:27:49;3.10;;;2.17;;
7575;SDS011;3829;50.798;4.358;2023-02-28T10:30:18;3.43;;;2.40;;
7575;SDS011;3829;50.798;4.358;2023-02-28T10:32:47;2.50;;;2.30;;
7575;SDS011;3829;50.798;4.358;2023-02-28T10:35:17;4.20;;;2.47;;
7575;SDS011;3829;50.798;4.358;2023-02-28T10:37:46;3.17;;;2.17;;
7575;SDS011;3829;50.798;4.358;2023-02-28T10:42:42;2.20;;;2.00;;
7575;SDS011;3829;50.798;4.358;2023-02-28T10:45:19;5.10;;;1.90;;
7575;SDS011;3829;50.798;4.358;2023-02-28T10:53:16;4.60;;;2.00;;
7575;SDS011;3829;50.798;4.358;2023-02-28T10:58:51;4.97;;;2.63;;
7575;SDS011;3829;50.798;4.358;2023-02-28T11:03:57;4.77;;;2.50;;
7575;SDS011;3829;50.798;4.358;2023-02-28T11:06:41;4.50;;;2.20;;
7575;SDS011;3829;50.798;4.358;2023-02-28T11:09:23;2.90;;;2.33;;
7575;SDS011;3829;50.798;4.358;2023-02-28T11:11:50;5.03;;;2.50;;
7575;SDS011;3829;50.798;4.358;2023-02-28T11:14:22;3.67;;;2.40;;
7575;SDS011;3829;50.798;4.358;2023-02-28T11:16:51;3.40;;;2.37;;
7575;SDS011;3829;50.798;4.358;2023-02-28T11:19:20;1.73;;;1.63;;
7575;SDS011;3829;50.798;4.358;2023-02-28T11:22:00;3.77;;;2.40;;
7575;SDS011;3829;50.798;4.358;2023-02-28T11:24:37;4.57;;;3.33;;
7575;SDS011;3829;50.798;4.358;2023-02-28T11:27:23;2.50;;;2.07;;
7575;SDS011;3829;50.798;4.358;2023-02-28T11:29:49;1.70;;;1.60;;
7575;SDS011;3829;50.798;4.358;2023-02-28T11:32:21;1.60;;;1.50;;
7575;SDS011;3829;50.798;4.358;2023-02-28T11:37:36;2.63;;;2.13;;
7575;SDS011;3829;50.798;4.358;2023-02-28T11:40:23;4.13;;;2.23;;
7575;SDS011;3829;50.798;4.358;2023-02-28T11:42:57;4.57;;;2.67;;
7575;SDS011;3829;50.798;4.358;2023-02-28T11:48:22;3.93;;;2.20;;
7575;SDS011;3829;50.798;4.358;2023-02-28T11:56:55;3.80;;;2.30;;
7575;SDS011;3829;50.798;4.358;2023-02-28T12:02:25;4.90;;;3.10;;
7575;SDS011;3829;50.798;4.358;2023-02-28T12:05:16;3.63;;;2.40;;
7575;SDS011;3829;50.798;4.358;2023-02-28T12:07:55;3.40;;;2.53;;
7575;SDS011;3829;50.798;4.358;2023-02-28T12:10:39;3.33;;;2.60;;
7575;SDS011;3829;50.798;4.358;2023-02-28T12:13:21;2.87;;;2.50;;
7575;SDS011;3829;50.798;4.358;2023-02-28T12:26:43;2.40;;;2.20;;
7575;SDS011;3829;50.798;4.358;2023-02-28T12:29:12;2.47;;;1.90;;
7575;SDS011;3829;50.798;4.358;2023-02-28T12:32:01;3.80;;;2.80;;
7575;SDS011;3829;50.798;4.358;2023-02-28T12:34:38;4.90;;;2.03;;
7575;SDS011;3829;50.798;4.358;2023-02-28T12:37:14;4.27;;;2.40;;
7575;SDS011;3829;50.798;4.358;2023-02-28T12:39:51;2.60;;;2.40;;
7575;SDS011;3829;50.798;4.358;2023-02-28T12:42:28;2.50;;;1.90;;
7575;SDS011;3829;50.798;4.358;2023-02-28T12:44:58;3.37;;;2.27;;
7575;SDS011;3829;50.798;4.358;2023-02-28T12:47:26;4.83;;;2.40;;
7575;SDS011;3829;50.798;4.358;2023-02-28T12:50:00;2.83;;;2.27;;
7575;SDS011;3829;50.798;4.358;2023-02-28T12:55:03;2.63;;;2.17;;
7575;SDS011;3829;50.798;4.358;2023-02-28T12:57:58;2.90;;;2.37;;
7575;SDS011;3829;50.798;4.358;2023-02-28T13:00:29;2.13;;;1.93;;
7575;SDS011;3829;50.798;4.358;2023-02-28T13:03:10;2.37;;;2.13;;
7575;SDS011;3829;50.798;4.358;2023-02-28T13:06:05;3.97;;;2.40;;
7575;SDS011;3829;50.798;4.358;2023-02-28T13:11:24;2.43;;;2.10;;
7575;SDS011;3829;50.798;4.358;2023-02-28T13:13:57;2.87;;;2.20;;
7575;SDS011;3829;50.798;4.358;2023-02-28T13:16:24;2.40;;;2.10;;
7575;SDS011;3829;50.798;4.358;2023-02-28T13:18:49;2.27;;;2.07;;
7575;SDS011;3829;50.798;4.358;2023-02-28T13:21:27;2.47;;;2.27;;
7575;SDS011;3829;50.798;4.358;2023-02-28T13:34:28;2.03;;;1.83;;
7575;SDS011;3829;50.798;4.358;2023-02-28T13:39:50;2.23;;;1.67;;
7575;SDS011;3829;50.798;4.358;2023-02-28T13:47:32;3.93;;;2.47;;
7575;SDS011;3829;50.798;4.358;2023-02-28T13:56:03;3.10;;;2.50;;
7575;SDS011;3829;50.798;4.358;2023-02-28T14:07:36;3.23;;;2.40;;
7575;SDS011;3829;50.798;4.358;2023-02-28T14:10:15;4.00;;;2.30;;
7575;SDS011;3829;50.798;4.358;2023-02-28T14:16:10;2.37;;;2.13;;
7575;SDS011;3829;50.798;4.358;2023-02-28T14:18:18;4.70;;;2.73;;
7575;SDS011;3829;50.798;4.358;2023-02-28T14:26:51;3.63;;;1.87;;
7575;SDS011;3829;50.798;4.358;2023-02-28T14:38:22;2.97;;;2.33;;
7575;SDS011;3829;50.798;4.358;2023-02-28T14:40:53;3.77;;;2.93;;
7575;SDS011;3829;50.798;4.358;2023-02-28T14:43:23;4.00;;;2.77;;
7575;SDS011;3829;50.798;4.358;2023-02-28T14:46:01;3.73;;;2.50;;
7575;SDS011;3829;50.798;4.358;2023-02-28T14:48:29;4.57;;;2.73;;
7575;SDS011;3829;50.798;4.358;2023-02-28T14:50:56;3.97;;;2.60;;
7575;SDS011;3829;50.798;4.358;2023-02-28T14:53:25;2.80;;;2.43;;
7575;SDS011;3829;50.798;4.358;2023-02-28T14:55:53;3.90;;;2.40;;
7575;SDS011;3829;50.798;4.358;2023-02-28T14:58:23;7.40;;;2.63;;
7575;SDS011;3829;50.798;4.358;2023-02-28T15:00:54;7.33;;;2.90;;
7575;SDS011;3829;50.798;4.358;2023-02-28T15:03:23;2.83;;;2.37;;
7575;SDS011;3829;50.798;4.358;2023-02-28T15:05:56;6.40;;;2.57;;
7575;SDS011;3829;50.798;4.358;2023-02-28T15:08:23;4.27;;;2.63;;
7575;SDS011;3829;50.798;4.358;2023-02-28T15:10:54;3.53;;;2.30;;
7575;SDS011;3829;50.798;4.358;2023-02-28T15:13:21;3.17;;;1.90;;
7575;SDS011;3829;50.798;4.358;2023-02-28T15:20:50;3.53;;;3.20;;
7575;SDS011;3829;50.798;4.358;2023-02-28T15:23:18;4.13;;;2.87;;
7575;SDS011;3829;50.798;4.358;2023-02-28T15:25:46;3.17;;;2.83;;
7575;SDS011;3829;50.798;4.358;2023-02-28T15:28:14;4.03;;;2.80;;
7575;SDS011;3829;50.798;4.358;2023-02-28T15:30:50;3.07;;;2.57;;
7575;SDS011;3829;50.798;4.358;2023-02-28T15:33:19;3.57;;;2.80;;
7575;SDS011;3829;50.798;4.358;2023-02-28T15:35:47;3.40;;;2.80;;
7575;SDS011;3829;50.798;4.358;2023-02-28T15:38:23;4.73;;;2.83;;
7575;SDS011;3829;50.798;4.358;2023-02-28T15:40:55;3.50;;;2.60;;
7575;SDS011;3829;50.798;4.358;2023-02-28T15:43:31;3.83;;;2.30;;
7575;SDS011;3829;50.798;4.358;2023-02-28T15:45:59;3.03;;;2.73;;
7575;SDS011;3829;50.798;4.358;2023-02-28T15:48:30;4.27;;;3.00;;
7575;SDS011;3829;50.798;4.358;2023-02-28T15:51:02;3.47;;;2.70;;
7575;SDS011;3829;50.798;4.358;2023-02-28T15:53:50;3.67;;;2.73;;
7575;SDS011;3829;50.798;4.358;2023-02-28T15:58:54;3.03;;;2.63;;
7575;SDS011;3829;50.798;4.358;2023-02-28T16:01:33;2.90;;;2.50;;
7575;SDS011;3829;50.798;4.358;2023-02-28T16:04:12;3.80;;;2.83;;
7575;SDS011;3829;50.798;4.358;2023-02-28T16:06:40;3.23;;;2.57;;
7575;SDS011;3829;50.798;4.358;2023-02-28T16:09:18;3.40;;;2.63;;
7575;SDS011;3829;50.798;4.358;2023-02-28T16:11:45;5.10;;;2.60;;
7575;SDS011;3829;50.798;4.358;2023-02-28T16:14:14;2.00;;;1.83;;
7575;SDS011;3829;50.798;4.358;2023-02-28T16:16:46;5.57;;;2.57;;
7575;SDS011;3829;50.798;4.358;2023-02-28T16:19:14;2.00;;;1.77;;
7575;SDS011;3829;50.798;4.358;2023-02-28T16:21:40;4.47;;;3.03;;
7575;SDS011;3829;50.798;4.358;2023-02-28T16:24:05;3.90;;;3.07;;
7575;SDS011;3829;50.798;4.358;2023-02-28T16:26:32;6.17;;;2.27;;
7575;SDS011;3829;50.798;4.358;2023-02-28T16:28:59;3.07;;;2.43;;
7575;SDS011;3829;50.798;4.358;2023-02-28T16:31:26;7.20;;;3.07;;
7575;SDS011;3829;50.798;4.358;2023-02-28T16:33:52;3.07;;;2.73;;
7575;SDS011;3829;50.798;4.358;2023-02-28T16:36:20;3.80;;;2.47;;
7575;SDS011;3829;50.798;4.358;2023-02-28T16:38:48;5.80;;;3.50;;
7575;SDS011;3829;50.798;4.358;2023-02-28T16:41:17;3.80;;;2.90;;
7575;SDS011;3829;50.798;4.358;2023-02-28T16:43:48;4.27;;;3.50;;
7575;SDS011;3829;50.798;4.358;2023-02-28T16:46:16;5.97;;;3.10;;
7575;SDS011;3829;50.798;4.358;2023-02-28T16:48:45;5.10;;;3.00;;
7575;SDS011;3829;50.798;4.358;2023-02-28T16:51:14;4.10;;;3.37;;
7575;SDS011;3829;50.798;4.358;2023-02-28T16:53:41;4.57;;;2.87;;
7575;SDS011;3829;50.798;4.358;2023-02-28T16:56:41;3.93;;;3.03;;
7575;SDS011;3829;50.798;4.358;2023-02-28T16:59:00;4.13;;;2.47;;
7575;SDS011;3829;50.798;4.358;2023-02-28T17:01:27;3.03;;;2.33;;
7575;SDS011;3829;50.798;4.358;2023-02-28T17:03:53;3.53;;;2.40;;
7575;SDS011;3829;50.798;4.358;2023-02-28T17:06:23;5.67;;;3.10;;
7575;SDS011;3829;50.798;4.358;2023-02-28T17:08:53;4.23;;;2.20;;
7575;SDS011;3829;50.798;4.358;2023-02-28T17:11:20;4.67;;;2.93;;
7575;SDS011;3829;50.798;4.358;2023-02-28T17:13:46;3.57;;;2.73;;
7575;SDS011;3829;50.798;4.358;2023-02-28T17:18:59;7.53;;;2.67;;
7575;SDS011;3829;50.798;4.358;2023-02-28T17:21:26;4.50;;;2.87;;
7575;SDS011;3829;50.798;4.358;2023-02-28T17:23:52;3.20;;;2.50;;
7575;SDS011;3829;50.798;4.358;2023-02-28T17:26:19;5.43;;;3.00;;
7575;SDS011;3829;50.798;4.358;2023-02-28T17:28:46;5.00;;;3.03;;
7575;SDS011;3829;50.798;4.358;2023-02-28T17:31:12;3.70;;;2.53;;
7575;SDS011;3829;50.798;4.358;2023-02-28T17:33:38;4.50;;;3.07;;
7575;SDS011;3829;50.798;4.358;2023-02-28T17:36:04;3.93;;;2.63;;
7575;SDS011;3829;50.798;4.358;2023-02-28T17:38:30;3.40;;;2.57;;
7575;SDS011;3829;50.798;4.358;2023-02-28T17:40:56;5.73;;;3.40;;
7575;SDS011;3829;50.798;4.358;2023-02-28T17:43:25;6.23;;;2.90;;
7575;SDS011;3829;50.798;4.358;2023-02-28T17:45:51;3.20;;;2.67;;
7575;SDS011;3829;50.798;4.358;2023-02-28T17:48:17;4.17;;;3.07;;
7575;SDS011;3829;50.798;4.358;2023-02-28T17:50:43;4.13;;;2.57;;
7575;SDS011;3829;50.798;4.358;2023-02-28T17:53:08;6.03;;;2.73;;
7575;SDS011;3829;50.798;4.358;2023-02-28T17:55:34;7.13;;;3.23;;
7575;SDS011;3829;50.798;4.358;2023-02-28T17:58:01;4.00;;;3.00;;
7575;SDS011;3829;50.798;4.358;2023-02-28T18:00:28;4.23;;;2.80;;